createdAt,value
2023-04-22T00:02:19.588Z,9.83
2023-04-22T00:04:48.349Z,9.81
2023-04-22T00:07:19.316Z,9.79
2023-04-22T00:09:48.052Z,9.78
2023-04-22T00:12:16.877Z,9.77
2023-04-22T00:14:45.448Z,9.77
2023-04-22T00:17:14.056Z,9.76
2023-04-22T00:19:44.014Z,9.76
2023-04-22T00:22:12.525Z,9.77
2023-04-22T00:24:41.422Z,9.76
2023-04-22T00:27:10.027Z,9.78
2023-04-22T00:29:39.675Z,9.78
2023-04-22T00:32:08.595Z,9.78
2023-04-22T00:34:37.108Z,9.79
2023-04-22T00:37:07.092Z,9.78
2023-04-22T00:39:35.702Z,9.78
2023-04-22T00:42:04.511Z,9.76
2023-04-22T00:44:33.783Z,9.74
2023-04-22T00:47:03.235Z,9.73
2023-04-22T00:49:32.374Z,9.73
2023-04-22T00:52:02.437Z,9.72
2023-04-22T00:54:33.254Z,9.73
2023-04-22T00:57:02.262Z,9.74
2023-04-22T00:59:31.310Z,9.75
2023-04-22T01:02:00.115Z,9.77
2023-04-22T01:04:29.131Z,9.77
2023-04-22T01:07:00.589Z,9.78
2023-04-22T01:09:29.182Z,9.78
2023-04-22T01:11:59.146Z,9.79
2023-04-22T01:14:27.742Z,9.79
2023-04-22T01:16:57.823Z,9.81
2023-04-22T01:19:29.436Z,9.82
2023-04-22T01:21:59.280Z,9.84
2023-04-22T01:24:30.682Z,9.85
2023-04-22T01:26:59.316Z,9.87
2023-04-22T01:29:27.955Z,9.89
2023-04-22T01:31:57.028Z,9.91
2023-04-22T01:34:25.716Z,9.93
2023-04-22T01:36:54.213Z,9.94
2023-04-22T01:39:22.809Z,9.97
2023-04-22T01:41:53.622Z,9.98
2023-04-22T01:44:22.351Z,10.00
2023-04-22T01:46:51.997Z,10.01
2023-04-22T01:49:20.478Z,10.02
2023-04-22T01:51:48.974Z,10.04
2023-04-22T01:54:17.624Z,10.06
2023-04-22T01:56:54.087Z,10.07
2023-04-22T01:59:23.043Z,10.08
2023-04-22T02:01:52.085Z,10.10
2023-04-22T02:04:20.681Z,10.12
2023-04-22T02:06:49.204Z,10.13
2023-04-22T02:09:17.726Z,10.14
2023-04-22T02:11:46.415Z,10.16
2023-04-22T02:14:16.224Z,10.19
2023-04-22T02:16:44.777Z,10.21
2023-04-22T02:19:13.262Z,10.23
2023-04-22T02:21:42.013Z,10.24
2023-04-22T02:24:11.611Z,10.26
2023-04-22T02:26:40.146Z,10.28
2023-04-22T02:29:08.906Z,10.30
2023-04-22T02:31:39.040Z,10.32
2023-04-22T02:34:07.657Z,10.33
2023-04-22T02:36:36.356Z,10.35
2023-04-22T02:39:06.116Z,10.35
2023-04-22T02:41:36.810Z,10.36
2023-04-22T02:44:05.918Z,10.37
2023-04-22T02:46:34.821Z,10.38
2023-04-22T02:49:05.525Z,10.40
2023-04-22T02:51:34.373Z,10.40
2023-04-22T02:54:02.938Z,10.41
2023-04-22T02:56:32.065Z,10.44
2023-04-22T02:59:00.608Z,10.45
2023-04-22T03:01:29.716Z,10.46
2023-04-22T03:04:01.872Z,10.46
2023-04-22T03:06:31.982Z,10.47
2023-04-22T03:09:00.924Z,10.47
2023-04-22T03:11:29.357Z,10.47
2023-04-22T03:13:58.044Z,10.46
2023-04-22T03:16:27.182Z,10.45
2023-04-22T03:18:57.811Z,10.45
2023-04-22T03:21:26.589Z,10.44
2023-04-22T03:23:57.205Z,10.43
2023-04-22T03:26:25.974Z,10.42
2023-04-22T03:28:55.385Z,10.40
2023-04-22T03:31:25.094Z,10.40
2023-04-22T03:33:54.058Z,10.38
2023-04-22T03:36:29.106Z,10.37
2023-04-22T03:38:59.855Z,10.36
2023-04-22T03:41:29.616Z,10.35
2023-04-22T03:44:01.533Z,10.32
2023-04-22T03:46:30.993Z,10.31
2023-04-22T03:49:09.091Z,10.29
2023-04-22T03:51:37.657Z,10.28
2023-04-22T03:54:12.674Z,10.28
2023-04-22T03:56:48.082Z,10.26
2023-04-22T03:59:18.570Z,10.25
2023-04-22T04:01:47.587Z,10.26
2023-04-22T04:04:19.877Z,10.25
2023-04-22T04:06:54.151Z,10.25
2023-04-22T04:09:24.168Z,10.27
2023-04-22T04:11:53.470Z,10.29
2023-04-22T04:14:22.005Z,10.29
2023-04-22T04:16:53.663Z,10.32
2023-04-22T04:19:31.762Z,10.32
2023-04-22T04:22:01.859Z,10.35
2023-04-22T04:24:36.709Z,10.36
2023-04-22T04:27:12.633Z,10.38
2023-04-22T04:29:49.614Z,10.40
2023-04-22T04:32:27.037Z,10.41
2023-04-22T04:34:57.659Z,10.45
2023-04-22T04:37:27.471Z,10.46
2023-04-22T04:40:06.752Z,10.46
2023-04-22T04:43:02.632Z,10.49
2023-04-22T04:45:37.754Z,10.50
2023-04-22T04:48:08.986Z,10.49
2023-04-22T04:50:42.389Z,10.51
2023-04-22T04:53:11.183Z,10.52
2023-04-22T04:55:43.927Z,10.53
2023-04-22T04:58:20.023Z,10.53
2023-04-22T05:00:52.915Z,10.53
2023-04-22T05:03:21.885Z,10.56
2023-04-22T05:05:50.725Z,10.56
2023-04-22T05:08:19.234Z,10.60
2023-04-22T05:10:51.035Z,10.62
2023-04-22T05:13:20.158Z,10.64
2023-04-22T05:15:49.911Z,10.66
2023-04-22T05:18:19.185Z,10.69
2023-04-22T05:20:47.933Z,10.72
2023-04-22T05:23:17.770Z,10.75
2023-04-22T05:25:52.796Z,10.78
2023-04-22T05:28:23.575Z,10.83
2023-04-22T05:30:56.125Z,10.86
2023-04-22T05:33:24.752Z,10.91
2023-04-22T05:35:53.795Z,10.94
2023-04-22T05:38:22.545Z,10.97
2023-04-22T05:40:51.431Z,11.02
2023-04-22T05:43:20.971Z,11.07
2023-04-22T05:45:58.751Z,11.11
2023-04-22T05:48:28.125Z,11.17
2023-04-22T05:51:02.833Z,11.20
2023-04-22T05:53:32.565Z,11.26
2023-04-22T05:56:03.030Z,11.30
2023-04-22T05:58:31.535Z,11.35
2023-04-22T06:01:05.889Z,11.39
2023-04-22T06:04:05.264Z,11.43
2023-04-22T06:06:34.368Z,11.49
2023-04-22T06:09:03.078Z,11.54
2023-04-22T06:11:32.179Z,11.58
2023-04-22T06:14:01.294Z,11.61
2023-04-22T06:16:31.526Z,11.67
2023-04-22T06:19:00.120Z,11.70
2023-04-22T06:21:28.780Z,11.72
2023-04-22T06:23:59.876Z,11.77
2023-04-22T06:26:28.561Z,11.79
2023-04-22T06:28:57.763Z,11.81
2023-04-22T06:31:26.339Z,11.83
2023-04-22T06:33:56.383Z,11.85
2023-04-22T06:36:25.431Z,11.87
2023-04-22T06:38:59.076Z,11.90
2023-04-22T06:41:50.271Z,11.94
2023-04-22T06:44:39.872Z,11.97
2023-04-22T06:47:30.358Z,12.02
2023-04-22T06:50:12.946Z,12.06
2023-04-22T06:52:57.303Z,12.10
2023-04-22T06:55:29.220Z,12.17
2023-04-22T06:57:58.023Z,12.22
2023-04-22T07:00:28.200Z,12.29
2023-04-22T07:02:56.983Z,12.36
2023-04-22T07:05:27.313Z,12.46
2023-04-22T07:07:56.897Z,12.55
2023-04-22T07:10:26.550Z,12.63
2023-04-22T07:13:18.003Z,12.70
2023-04-22T07:15:46.792Z,12.78
2023-04-22T07:18:15.360Z,12.85
2023-04-22T07:20:45.421Z,12.92
2023-04-22T07:23:14.005Z,13.01
2023-04-22T07:25:42.594Z,13.09
2023-04-22T07:28:11.311Z,13.21
2023-04-22T07:30:39.855Z,13.29
2023-04-22T07:33:08.502Z,13.36
2023-04-22T07:35:38.880Z,13.43
2023-04-22T07:38:09.867Z,13.47
2023-04-22T07:40:39.168Z,13.51
2023-04-22T07:43:07.837Z,13.57
2023-04-22T07:45:36.457Z,13.63
2023-04-22T07:48:05.533Z,13.68
2023-04-22T07:50:34.129Z,13.77
2023-04-22T07:53:02.976Z,13.84
2023-04-22T07:55:33.257Z,13.92
2023-04-22T07:58:06.375Z,14.02
2023-04-22T08:00:35.623Z,14.12
2023-04-22T08:03:04.979Z,14.20
2023-04-22T08:05:33.804Z,14.28
2023-04-22T08:08:02.742Z,14.37
2023-04-22T08:10:32.819Z,14.45
2023-04-22T08:13:03.172Z,14.55
2023-04-22T08:15:31.706Z,14.64
2023-04-22T08:18:00.361Z,14.72
2023-04-22T08:20:28.925Z,14.80
2023-04-22T08:22:58.230Z,14.89
2023-04-22T08:25:26.767Z,14.96
2023-04-22T08:27:57.948Z,15.04
2023-04-22T08:30:26.758Z,15.13
2023-04-22T08:32:55.482Z,15.20
2023-04-22T08:35:24.168Z,15.28
2023-04-22T08:37:52.721Z,15.36
2023-04-22T08:40:21.573Z,15.45
2023-04-22T08:42:52.193Z,15.53
2023-04-22T08:45:22.558Z,15.60
2023-04-22T08:47:51.276Z,15.68
2023-04-22T08:50:22.145Z,15.76
2023-04-22T08:52:51.066Z,15.82
2023-04-22T08:55:20.525Z,15.85
2023-04-22T08:57:50.334Z,15.89
2023-04-22T09:00:20.103Z,15.95
2023-04-22T09:02:51.795Z,15.97
2023-04-22T09:05:23.434Z,16.02
2023-04-22T09:07:52.360Z,16.06
2023-04-22T09:10:21.284Z,16.13
2023-04-22T09:12:50.547Z,16.18
2023-04-22T09:15:19.289Z,16.25
2023-04-22T09:17:52.035Z,16.32
2023-04-22T09:20:20.747Z,16.38
2023-04-22T09:22:50.760Z,16.42
2023-04-22T09:25:20.591Z,16.46
2023-04-22T09:27:53.052Z,16.50
2023-04-22T09:30:25.585Z,16.54
2023-04-22T09:32:57.347Z,16.59
2023-04-22T09:35:30.164Z,16.67
2023-04-22T09:38:00.535Z,16.76
2023-04-22T09:40:29.990Z,16.87
2023-04-22T09:43:01.823Z,16.95
2023-04-22T09:45:31.914Z,17.03
2023-04-22T09:48:07.906Z,17.11
2023-04-22T09:50:37.836Z,17.19
2023-04-22T09:53:08.186Z,17.27
2023-04-22T09:55:38.997Z,17.37
2023-04-22T09:58:09.740Z,17.46
2023-04-22T10:00:42.604Z,17.54
2023-04-22T10:03:12.959Z,17.62
2023-04-22T10:05:42.186Z,17.67
2023-04-22T10:08:12.099Z,17.75
2023-04-22T10:10:41.281Z,17.84
2023-04-22T10:13:10.712Z,17.94
2023-04-22T10:15:41.607Z,18.03
2023-04-22T10:18:15.319Z,18.10
2023-04-22T10:20:45.286Z,18.19
2023-04-22T10:23:16.223Z,18.28
2023-04-22T10:25:48.838Z,18.36
2023-04-22T10:28:18.705Z,18.45
2023-04-22T10:30:47.902Z,18.52
2023-04-22T10:33:40.025Z,18.61
2023-04-22T10:36:10.634Z,18.68
2023-04-22T10:38:41.891Z,18.75
2023-04-22T10:41:17.035Z,18.85
2023-04-22T10:43:49.068Z,18.91
2023-04-22T10:46:54.725Z,18.98
2023-04-22T10:49:27.857Z,19.07
2023-04-22T10:51:59.867Z,19.10
2023-04-22T10:54:58.016Z,19.14
2023-04-22T10:57:38.520Z,19.21
2023-04-22T11:03:17.341Z,19.41
2023-04-22T11:05:48.761Z,19.49
2023-04-22T11:08:25.134Z,19.55
2023-04-22T11:10:55.585Z,19.65
2023-04-22T11:13:26.952Z,19.75
2023-04-22T11:16:01.209Z,19.86
2023-04-22T11:18:33.644Z,19.94
2023-04-22T11:21:08.908Z,20.06
2023-04-22T11:23:37.701Z,20.16
2023-04-22T11:26:12.473Z,20.25
2023-04-22T11:28:52.718Z,20.30
2023-04-22T11:31:27.872Z,20.38
2023-04-22T11:34:00.761Z,20.45
2023-04-22T11:36:32.897Z,20.50
2023-04-22T11:39:03.344Z,20.51
2023-04-22T11:41:34.612Z,20.52
2023-04-22T11:44:07.626Z,20.48
2023-04-22T11:46:40.580Z,20.47
2023-04-22T11:49:16.942Z,20.48
2023-04-22T11:52:00.962Z,20.54
2023-04-22T11:54:35.628Z,20.59
2023-04-22T11:57:09.302Z,20.67
2023-04-22T11:59:39.732Z,20.77
2023-04-22T12:02:13.851Z,20.80
2023-04-22T12:04:46.357Z,20.81
2023-04-22T12:07:17.767Z,20.76
2023-04-22T12:09:51.301Z,20.75
2023-04-22T12:12:27.030Z,20.72
2023-04-22T12:14:58.092Z,20.68
2023-04-22T12:17:27.337Z,20.67
2023-04-22T12:19:56.684Z,20.73
2023-04-22T12:22:28.152Z,20.79
2023-04-22T12:24:59.726Z,20.89
2023-04-22T12:27:29.187Z,20.99
2023-04-22T12:29:58.852Z,21.05
2023-04-22T12:32:31.556Z,21.14
2023-04-22T12:35:00.187Z,21.23
2023-04-22T12:37:30.721Z,21.31
2023-04-22T12:39:59.796Z,21.40
2023-04-22T12:42:28.366Z,21.49
2023-04-22T12:44:56.981Z,21.61
2023-04-22T12:47:25.925Z,21.78
2023-04-22T12:49:54.542Z,21.87
2023-04-22T12:52:23.266Z,21.91
2023-04-22T12:54:53.457Z,21.88
2023-04-22T12:57:22.001Z,21.84
2023-04-22T12:59:50.534Z,21.74
2023-04-22T13:02:19.353Z,21.74
2023-04-22T13:04:47.946Z,21.83
2023-04-22T13:07:17.480Z,21.92
2023-04-22T13:09:46.108Z,22.00
2023-04-22T13:12:16.284Z,22.02
2023-04-22T13:14:44.803Z,22.02
2023-04-22T13:17:13.551Z,21.99
2023-04-22T13:19:42.211Z,21.89
2023-04-22T13:22:10.867Z,21.77
2023-04-22T13:24:39.350Z,21.69
2023-04-22T13:27:07.961Z,21.59
2023-04-22T13:29:38.344Z,21.49
2023-04-22T13:32:07.246Z,21.39
2023-04-22T13:34:35.858Z,21.32
2023-04-22T13:37:04.635Z,21.24
2023-04-22T13:39:33.566Z,21.15
2023-04-22T13:42:02.809Z,21.06
2023-04-22T13:44:31.477Z,20.89
2023-04-22T13:47:02.764Z,20.76
2023-04-22T13:49:31.585Z,20.58
2023-04-22T13:52:00.098Z,20.40
2023-04-22T13:54:28.592Z,20.22
2023-04-22T13:56:57.156Z,20.13
2023-04-22T13:59:25.963Z,20.03
2023-04-22T14:01:54.468Z,19.94
2023-04-22T14:04:24.539Z,19.87
2023-04-22T14:06:53.338Z,19.77
2023-04-22T14:09:22.166Z,19.69
2023-04-22T14:11:50.739Z,19.60
2023-04-22T14:14:19.321Z,19.53
2023-04-22T14:16:47.920Z,19.47
2023-04-22T14:19:19.292Z,19.42
2023-04-22T14:21:49.065Z,19.36
2023-04-22T14:24:19.385Z,19.30
2023-04-22T14:26:47.962Z,19.27
2023-04-22T14:29:16.643Z,19.23
2023-04-22T14:31:45.256Z,19.18
2023-04-22T14:34:13.873Z,19.15
2023-04-22T14:36:42.417Z,19.12
2023-04-22T14:39:12.508Z,19.09
2023-04-22T14:41:41.463Z,19.07
2023-04-22T14:44:10.088Z,19.07
2023-04-22T14:46:38.643Z,19.05
2023-04-22T14:49:07.332Z,19.02
2023-04-22T14:51:36.512Z,18.99
2023-04-22T14:54:05.280Z,18.97
2023-04-22T14:56:36.115Z,18.94
2023-04-22T14:59:04.600Z,18.93
2023-04-22T15:01:33.643Z,18.88
2023-04-22T15:04:02.231Z,18.84
2023-04-22T15:06:31.080Z,18.80
2023-04-22T15:08:59.558Z,18.77
2023-04-22T15:11:28.057Z,18.74
2023-04-22T15:13:57.972Z,18.72
2023-04-22T15:16:26.619Z,18.70
2023-04-22T15:18:55.752Z,18.69
2023-04-22T15:21:24.328Z,18.69
2023-04-22T15:23:53.102Z,18.67
2023-04-22T15:26:21.649Z,18.64
2023-04-22T15:28:51.290Z,18.63
2023-04-22T15:31:21.924Z,18.60
2023-04-22T15:33:50.571Z,18.58
2023-04-22T15:36:21.578Z,18.54
2023-04-22T15:38:56.343Z,18.50
2023-04-22T15:41:25.392Z,18.47
2023-04-22T15:43:54.330Z,18.43
2023-04-22T15:46:24.303Z,18.40
2023-04-22T15:48:52.897Z,18.37
2023-04-22T15:51:21.868Z,18.31
2023-04-22T15:53:50.519Z,18.26
2023-04-22T15:56:19.433Z,18.20
2023-04-22T15:58:47.939Z,18.16
2023-04-22T16:01:19.560Z,18.11
2023-04-22T16:03:51.474Z,18.07
2023-04-22T16:06:20.416Z,18.03
2023-04-22T16:08:48.942Z,17.98
2023-04-22T16:11:17.623Z,17.94
2023-04-22T16:13:46.436Z,17.89
2023-04-22T16:16:15.117Z,17.85
2023-04-22T16:18:44.461Z,17.79
2023-04-22T16:21:14.435Z,17.76
2023-04-22T16:23:43.407Z,17.69
2023-04-22T16:26:12.012Z,17.65
2023-04-22T16:28:40.735Z,17.60
2023-04-22T16:31:12.342Z,17.56
2023-04-22T16:33:40.917Z,17.51
2023-04-22T16:36:10.290Z,17.48
2023-04-22T16:38:40.171Z,17.42
2023-04-22T16:41:11.508Z,17.36
2023-04-22T16:43:41.383Z,17.31
2023-04-22T16:46:09.906Z,17.25
2023-04-22T16:48:38.514Z,17.20
2023-04-22T16:51:07.185Z,17.13
2023-04-22T16:53:36.621Z,17.08
2023-04-22T16:56:06.902Z,17.00
2023-04-22T16:58:35.450Z,16.95
2023-04-22T17:01:04.181Z,16.91
2023-04-22T17:03:33.313Z,16.88
2023-04-22T17:06:01.988Z,16.86
2023-04-22T17:08:30.667Z,16.84
2023-04-22T17:10:59.502Z,16.81
2023-04-22T17:13:29.410Z,16.76
2023-04-22T17:15:58.004Z,16.72
2023-04-22T17:18:26.764Z,16.68
2023-04-22T17:20:55.924Z,16.63
2023-04-22T17:23:24.377Z,16.59
2023-04-22T17:25:52.857Z,16.57
2023-04-22T17:28:21.476Z,16.54
2023-04-22T17:30:51.424Z,16.52
2023-04-22T17:33:19.967Z,16.49
2023-04-22T17:35:48.508Z,16.48
2023-04-22T17:38:17.056Z,16.45
2023-04-22T17:40:45.861Z,16.42
2023-04-22T17:43:14.466Z,16.39
2023-04-22T17:45:42.957Z,16.36
2023-04-22T17:48:12.963Z,16.31
2023-04-22T17:50:41.473Z,16.28
2023-04-22T17:53:09.956Z,16.25
2023-04-22T17:55:38.927Z,16.23
2023-04-22T17:58:07.494Z,16.21
2023-04-22T18:00:36.951Z,16.17
2023-04-22T18:03:06.594Z,16.15
2023-04-22T18:05:42.971Z,16.13
2023-04-22T18:08:11.826Z,16.10
2023-04-22T18:10:40.390Z,16.09
2023-04-22T18:13:08.881Z,16.06
2023-04-22T18:15:37.376Z,16.04
2023-04-22T18:18:05.981Z,16.01
2023-04-22T18:20:36.265Z,16.01
2023-04-22T18:23:05.656Z,15.99
2023-04-22T18:25:35.218Z,15.97
2023-04-22T18:28:03.833Z,15.95
2023-04-22T18:30:32.920Z,15.92
2023-04-22T18:33:01.626Z,15.91
2023-04-22T18:35:30.658Z,15.89
2023-04-22T18:38:00.818Z,15.85
2023-04-22T18:40:29.760Z,15.83
2023-04-22T18:42:58.814Z,15.81
2023-04-22T18:45:27.591Z,15.77
2023-04-22T18:47:56.803Z,15.73
2023-04-22T18:50:25.662Z,15.71
2023-04-22T18:52:54.556Z,15.68
2023-04-22T18:55:24.990Z,15.67
2023-04-22T18:57:53.767Z,15.65
2023-04-22T19:00:22.694Z,15.62
2023-04-22T19:02:51.575Z,15.60
2023-04-22T19:05:20.553Z,15.59
2023-04-22T19:07:49.637Z,15.57
2023-04-22T19:10:18.408Z,15.55
2023-04-22T19:12:48.377Z,15.53
2023-04-22T19:15:20.072Z,15.52
2023-04-22T19:17:49.073Z,15.51
2023-04-22T19:20:18.119Z,15.50
2023-04-22T19:22:46.814Z,15.48
2023-04-22T19:25:16.341Z,15.46
2023-04-22T19:27:44.780Z,15.43
2023-04-22T19:30:16.542Z,15.41
2023-04-22T19:32:45.417Z,15.35
2023-04-22T19:35:16.363Z,15.26
2023-04-22T19:37:45.629Z,15.16
2023-04-22T19:40:17.331Z,15.08
2023-04-22T19:42:47.403Z,15.01
2023-04-22T19:45:17.634Z,14.94
2023-04-22T19:47:46.775Z,14.85
2023-04-22T19:50:16.747Z,14.76
2023-04-22T19:52:47.614Z,14.66
2023-04-22T19:55:17.536Z,14.61
2023-04-22T19:57:46.860Z,14.57
2023-04-22T20:00:18.952Z,14.54
2023-04-22T20:02:48.344Z,14.48
2023-04-22T20:05:18.898Z,14.45
2023-04-22T20:07:48.518Z,14.39
2023-04-22T20:10:18.259Z,14.35
2023-04-22T20:12:47.177Z,14.30
2023-04-22T20:15:18.053Z,14.24
2023-04-22T20:17:47.102Z,14.21
2023-04-22T20:20:17.699Z,14.17
2023-04-22T20:22:47.423Z,14.13
2023-04-22T20:25:18.257Z,14.11
2023-04-22T20:27:47.380Z,14.10
2023-04-22T20:30:18.940Z,14.06
2023-04-22T20:32:48.035Z,14.05
2023-04-22T20:35:17.362Z,14.05
2023-04-22T20:37:47.129Z,14.03
2023-04-22T20:40:16.812Z,14.02
2023-04-22T20:42:46.735Z,14.01
2023-04-22T20:45:17.888Z,14.01
2023-04-22T20:47:48.616Z,13.99
2023-04-22T20:50:17.393Z,13.98
2023-04-22T20:52:45.887Z,13.95
2023-04-22T20:55:14.571Z,13.94
2023-04-22T20:57:43.179Z,13.90
2023-04-22T21:00:12.639Z,13.83
2023-04-22T21:02:43.247Z,13.76
2023-04-22T21:05:13.770Z,13.70
2023-04-22T21:07:44.525Z,13.62
2023-04-22T21:10:14.023Z,13.55
2023-04-22T21:12:43.408Z,13.48
2023-04-22T21:15:18.745Z,13.38
2023-04-22T21:18:03.330Z,13.29
2023-04-22T21:20:40.743Z,13.21
2023-04-22T21:23:11.063Z,13.13
2023-04-22T21:25:41.598Z,13.09
2023-04-22T21:28:12.611Z,13.07
2023-04-22T21:30:42.546Z,13.06
2023-04-22T21:33:12.000Z,13.03
2023-04-22T21:35:45.419Z,12.97
2023-04-22T21:38:16.719Z,12.91
2023-04-22T21:40:49.049Z,12.87
2023-04-22T21:43:29.604Z,12.84
2023-04-22T21:45:58.535Z,12.78
2023-04-22T21:48:27.696Z,12.73
2023-04-22T21:50:58.663Z,12.68
2023-04-22T21:53:28.452Z,12.66
2023-04-22T21:55:58.099Z,12.64
2023-04-22T21:58:29.496Z,12.61
2023-04-22T22:00:58.629Z,12.58
2023-04-22T22:03:28.136Z,12.56
2023-04-22T22:05:59.922Z,12.54
2023-04-22T22:08:28.908Z,12.53
2023-04-22T22:10:57.913Z,12.51
2023-04-22T22:13:27.022Z,12.46
2023-04-22T22:15:57.713Z,12.41
2023-04-22T22:18:27.512Z,12.37
2023-04-22T22:20:56.084Z,12.37
2023-04-22T22:23:26.164Z,12.35
2023-04-22T22:25:54.721Z,12.34
2023-04-22T22:28:23.286Z,12.30
2023-04-22T22:30:51.816Z,12.28
2023-04-22T22:33:20.360Z,12.25
2023-04-22T22:35:48.998Z,12.25
2023-04-22T22:38:17.530Z,12.22
2023-04-22T22:40:47.444Z,12.22
2023-04-22T22:43:16.406Z,12.18
2023-04-22T22:45:45.633Z,12.16
2023-04-22T22:48:15.939Z,12.14
2023-04-22T22:50:46.765Z,12.14
2023-04-22T22:53:16.171Z,12.13
2023-04-22T22:55:45.510Z,12.09
2023-04-22T22:58:16.772Z,12.07
2023-04-22T23:00:45.675Z,12.04
2023-04-22T23:03:14.292Z,12.03
2023-04-22T23:05:42.975Z,12.01
2023-04-22T23:08:12.417Z,12.01
2023-04-22T23:10:40.884Z,12.01
2023-04-22T23:13:09.346Z,11.99
2023-04-22T23:15:39.335Z,11.97
2023-04-22T23:18:08.979Z,11.96
2023-04-22T23:20:38.304Z,11.94
2023-04-22T23:23:07.327Z,11.92
2023-04-22T23:25:36.347Z,11.91
2023-04-22T23:28:05.595Z,11.89
2023-04-22T23:30:34.898Z,11.86
2023-04-22T23:33:05.940Z,11.85
2023-04-22T23:35:36.748Z,11.80
2023-04-22T23:38:05.555Z,11.78
2023-04-22T23:40:34.057Z,11.79
2023-04-22T23:43:02.621Z,11.78
2023-04-22T23:45:31.132Z,11.77
2023-04-22T23:47:59.909Z,11.75
2023-04-22T23:50:30.656Z,11.75
2023-04-22T23:52:59.469Z,11.74
2023-04-22T23:55:28.836Z,11.73
2023-04-22T23:57:57.940Z,11.74
